TimeEST,TemperatureF,Dew PointF,Humidity,Sea Level PressureIn,VisibilityMPH,Wind Direction,Wind SpeedMPH,Gust SpeedMPH,PrecipitationIn,Events,Conditions,WindDirDegrees,DateUTC
12:15 AM,17.6,15.8,93,29.75,10.0,WNW,21.9,28.8,N/A,Snow,Light Snow,300,2013-03-03 05:15:00
12:35 AM,17.6,15.8,93,29.75,10.0,WNW,18.4,25.3,N/A,Snow,Light Snow,300,2013-03-03 05:35:00
12:55 AM,17.6,15.8,93,29.75,10.0,WNW,18.4,26.5,N/A,Snow,Light Snow,300,2013-03-03 05:55:00
1:15 AM,17.6,15.8,93,29.76,10.0,WNW,15.0,21.9,N/A,Snow,Light Snow,290,2013-03-03 06:15:00
1:35 AM,17.6,15.8,93,29.75,7.0,WNW,20.7,28.8,N/A,Snow,Light Snow,300,2013-03-03 06:35:00
1:55 AM,17.6,14.0,86,29.75,10.0,WNW,19.6,28.8,N/A,Snow,Light Snow,300,2013-03-03 06:55:00
2:15 AM,15.8,12.2,86,29.75,10.0,WNW,19.6,28.8,N/A,,Overcast,300,2013-03-03 07:15:00
2:35 AM,15.8,12.2,86,29.75,10.0,WNW,21.9,29.9,N/A,Snow,Light Snow,300,2013-03-03 07:35:00
2:55 AM,15.8,12.2,86,29.74,10.0,WNW,20.7,27.6,N/A,Snow,Light Snow,300,2013-03-03 07:55:00
3:15 AM,15.8,12.2,86,29.74,10.0,WNW,18.4,27.6,N/A,Snow,Light Snow,300,2013-03-03 08:15:00
3:35 AM,15.8,12.2,86,29.73,10.0,WNW,17.3,26.5,N/A,,Overcast,300,2013-03-03 08:35:00
3:55 AM,15.8,12.2,86,29.73,10.0,WNW,17.3,26.5,N/A,Snow,Light Snow,290,2013-03-03 08:55:00
4:15 AM,15.8,12.2,86,29.73,10.0,WNW,18.4,24.2,N/A,Snow,Light Snow,300,2013-03-03 09:15:00
4:35 AM,15.8,12.2,86,29.73,10.0,WNW,23.0,28.8,N/A,Snow,Light Snow,300,2013-03-03 09:35:00
4:55 AM,15.8,12.2,86,29.73,10.0,WNW,18.4,24.2,N/A,Snow,Light Snow,300,2013-03-03 09:55:00
5:35 AM,15.8,12.2,86,29.73,10.0,WNW,18.4,25.3,N/A,Snow,Light Snow,300,2013-03-03 10:35:00
5:55 AM,15.8,12.2,86,29.74,10.0,WNW,19.6,25.3,N/A,Snow,Light Snow,300,2013-03-03 10:55:00
6:15 AM,15.8,10.4,79,29.73,10.0,WNW,18.4,29.9,N/A,Snow,Light Snow,300,2013-03-03 11:15:00
6:35 AM,15.8,12.2,86,29.74,10.0,WNW,19.6,26.5,N/A,Snow,Light Snow,300,2013-03-03 11:35:00
7:15 AM,15.8,10.4,79,29.74,10.0,WNW,18.4,28.8,N/A,Snow,Light Snow,290,2013-03-03 12:15:00
7:35 AM,15.8,12.2,86,29.75,10.0,WNW,17.3,25.3,N/A,Snow,Light Snow,290,2013-03-03 12:35:00
7:55 AM,15.8,12.2,86,29.76,7.0,WNW,15.0,20.7,N/A,Snow,Light Snow,290,2013-03-03 12:55:00
8:15 AM,15.8,12.2,86,29.76,7.0,WNW,15.0,23.0,N/A,Snow,Light Snow,290,2013-03-03 13:15:00
8:35 AM,15.8,12.2,86,29.76,10.0,WNW,19.6,24.2,N/A,Snow,Light Snow,290,2013-03-03 13:35:00
8:55 AM,17.6,12.2,79,29.77,10.0,WNW,18.4,27.6,N/A,,Overcast,300,2013-03-03 13:55:00
9:15 AM,17.6,12.2,79,29.77,10.0,WNW,13.8,26.5,N/A,,Overcast,300,2013-03-03 14:15:00
9:35 AM,17.6,12.2,79,29.76,10.0,West,17.3,31.1,N/A,Snow,Light Snow,280,2013-03-03 14:35:00
9:55 AM,17.6,12.2,79,29.77,10.0,West,18.4,26.5,N/A,,Overcast,280,2013-03-03 14:55:00
10:15 AM,17.6,12.2,79,29.77,10.0,WNW,15.0,23.0,N/A,Snow,Light Snow,300,2013-03-03 15:15:00
10:35 AM,17.6,12.2,79,29.76,10.0,WNW,17.3,25.3,N/A,Snow,Light Snow,290,2013-03-03 15:35:00
10:55 AM,17.6,12.2,79,29.77,7.0,WNW,15.0,19.6,N/A,Snow,Light Snow,290,2013-03-03 15:55:00
11:15 AM,17.6,12.2,79,29.77,10.0,WNW,12.7,20.7,N/A,Snow,Light Snow,290,2013-03-03 16:15:00
11:35 AM,17.6,12.2,79,29.77,10.0,WNW,16.1,24.2,N/A,,Overcast,300,2013-03-03 16:35:00
11:55 AM,19.4,12.2,74,29.77,10.0,WNW,16.1,25.3,N/A,,Overcast,290,2013-03-03 16:55:00
12:15 PM,19.4,12.2,74,29.76,10.0,WNW,13.8,19.6,N/A,Snow,Light Snow,290,2013-03-03 17:15:00
12:35 PM,19.4,12.2,74,29.76,10.0,WNW,13.8,20.7,N/A,,Overcast,300,2013-03-03 17:35:00
12:55 PM,19.4,14.0,80,29.76,10.0,WNW,18.4,21.9,N/A,Snow,Light Snow,300,2013-03-03 17:55:00
1:15 PM,19.4,14.0,80,29.75,10.0,WNW,12.7,21.9,N/A,Snow,Light Snow,290,2013-03-03 18:15:00
1:35 PM,19.4,14.0,80,29.74,10.0,WNW,11.5,-,N/A,,Overcast,290,2013-03-03 18:35:00
1:55 PM,19.4,12.2,74,29.74,10.0,WNW,19.6,26.5,N/A,,Overcast,300,2013-03-03 18:55:00
2:15 PM,19.4,12.2,74,29.75,10.0,WNW,19.6,24.2,N/A,,Overcast,300,2013-03-03 19:15:00
2:55 PM,19.4,14.0,80,29.74,10.0,West,17.3,25.3,N/A,Snow,Light Snow,280,2013-03-03 19:55:00
3:15 PM,19.4,12.2,74,29.74,10.0,WNW,18.4,24.2,N/A,,Overcast,290,2013-03-03 20:15:00
3:35 PM,19.4,12.2,74,29.75,10.0,WNW,19.6,26.5,N/A,,Overcast,290,2013-03-03 20:35:00
3:55 PM,19.4,12.2,74,29.75,10.0,WNW,19.6,24.2,N/A,,Overcast,290,2013-03-03 20:55:00
4:15 PM,17.6,12.2,79,29.75,10.0,WNW,13.8,28.8,N/A,,Overcast,290,2013-03-03 21:15:00
4:35 PM,17.6,12.2,79,29.75,10.0,WNW,18.4,31.1,N/A,,Overcast,290,2013-03-03 21:35:00
4:55 PM,17.6,12.2,79,29.76,10.0,WNW,15.0,26.5,N/A,Snow,Light Snow,290,2013-03-03 21:55:00
5:15 PM,17.6,10.4,73,29.76,10.0,WNW,19.6,27.6,N/A,,Overcast,300,2013-03-03 22:15:00
5:35 PM,17.6,10.4,73,29.76,10.0,NW,17.3,26.5,N/A,,Overcast,310,2013-03-03 22:35:00
5:55 PM,17.6,10.4,73,29.77,10.0,WNW,20.7,34.5,N/A,Snow,Light Snow,300,2013-03-03 22:55:00
6:15 PM,15.8,10.4,79,29.77,10.0,WNW,18.4,27.6,N/A,Snow,Light Snow,290,2013-03-03 23:15:00
6:35 PM,15.8,12.2,86,29.77,7.0,WNW,17.3,29.9,N/A,Snow,Light Snow,290,2013-03-03 23:35:00
6:55 PM,15.8,10.4,79,29.77,10.0,WNW,19.6,31.1,N/A,,Overcast,290,2013-03-03 23:55:00
7:15 PM,15.8,10.4,79,29.77,10.0,WNW,27.6,34.5,N/A,,Overcast,290,2013-03-04 00:15:00
7:35 PM,15.8,10.4,79,29.77,10.0,WNW,23.0,33.4,N/A,,Overcast,300,2013-03-04 00:35:00
7:55 PM,15.8,10.4,79,29.78,10.0,WNW,20.7,33.4,N/A,,Overcast,300,2013-03-04 00:55:00
8:15 PM,15.8,10.4,79,29.79,10.0,WNW,17.3,27.6,N/A,,Overcast,290,2013-03-04 01:15:00
8:35 PM,15.8,10.4,79,29.79,10.0,WNW,20.7,26.5,N/A,,Overcast,300,2013-03-04 01:35:00
8:55 PM,15.8,10.4,79,29.79,10.0,WNW,18.4,34.5,N/A,Snow,Light Snow,290,2013-03-04 01:55:00
9:15 PM,15.8,8.6,73,29.80,10.0,WNW,18.4,28.8,N/A,Snow,Light Snow,290,2013-03-04 02:15:00
9:35 PM,14.0,8.6,79,29.80,10.0,WNW,26.5,36.8,N/A,,Overcast,300,2013-03-04 02:35:00
9:55 PM,14.0,8.6,79,29.80,10.0,WNW,20.7,35.7,N/A,,Overcast,290,2013-03-04 02:55:00
10:15 PM,14.0,8.6,79,29.80,10.0,WNW,18.4,29.9,N/A,,Overcast,290,2013-03-04 03:15:00
10:35 PM,14.0,6.8,73,29.80,10.0,WNW,19.6,28.8,N/A,,Overcast,300,2013-03-04 03:35:00
10:55 PM,14.0,6.8,73,29.79,10.0,WNW,19.6,31.1,N/A,,Overcast,290,2013-03-04 03:55:00
11:15 PM,14.0,8.6,79,29.80,10.0,WNW,20.7,33.4,N/A,Snow,Light Snow,300,2013-03-04 04:15:00
11:35 PM,14.0,8.6,79,29.80,10.0,WNW,23.0,34.5,N/A,,Overcast,300,2013-03-04 04:35:00
11:55 PM,14.0,8.6,79,29.80,10.0,WNW,17.3,26.5,N/A,,Overcast,300,2013-03-04 04:55:00